sensor_id;sensor_type;location;lat;lon;timestamp;P1;durP1;ratioP1;P2;durP2;ratioP2
70761;SDS011;58360;0.000;0.000;2023-04-09T00:01:45;27.30;;;18.20;;
70761;SDS011;58360;0.000;0.000;2023-04-09T00:04:11;24.65;;;18.02;;
70761;SDS011;58360;0.000;0.000;2023-04-09T00:06:36;28.60;;;19.88;;
70761;SDS011;58360;0.000;0.000;2023-04-09T00:09:02;25.15;;;17.55;;
70761;SDS011;58360;0.000;0.000;2023-04-09T00:11:28;27.38;;;18.83;;
70761;SDS011;58360;0.000;0.000;2023-04-09T00:13:53;26.17;;;19.00;;
70761;SDS011;58360;0.000;0.000;2023-04-09T00:16:19;34.08;;;19.17;;
70761;SDS011;58360;0.000;0.000;2023-04-09T00:18:45;27.13;;;18.10;;
70761;SDS011;58360;0.000;0.000;2023-04-09T00:21:11;26.75;;;18.77;;
70761;SDS011;58360;0.000;0.000;2023-04-09T00:23:37;26.42;;;18.60;;
70761;SDS011;58360;0.000;0.000;2023-04-09T00:26:03;28.70;;;19.23;;
70761;SDS011;58360;0.000;0.000;2023-04-09T00:28:28;28.92;;;18.23;;
70761;SDS011;58360;0.000;0.000;2023-04-09T00:30:54;29.48;;;18.73;;
70761;SDS011;58360;0.000;0.000;2023-04-09T00:33:21;29.15;;;19.15;;
70761;SDS011;58360;0.000;0.000;2023-04-09T00:35:46;32.22;;;20.98;;
70761;SDS011;58360;0.000;0.000;2023-04-09T00:38:12;27.88;;;18.85;;
70761;SDS011;58360;0.000;0.000;2023-04-09T00:40:38;29.58;;;19.70;;
70761;SDS011;58360;0.000;0.000;2023-04-09T00:43:03;26.23;;;18.63;;
70761;SDS011;58360;0.000;0.000;2023-04-09T00:45:29;28.65;;;18.40;;
70761;SDS011;58360;0.000;0.000;2023-04-09T00:47:55;28.85;;;18.55;;
70761;SDS011;58360;0.000;0.000;2023-04-09T00:50:21;32.15;;;19.48;;
70761;SDS011;58360;0.000;0.000;2023-04-09T00:52:47;28.75;;;18.58;;
70761;SDS011;58360;0.000;0.000;2023-04-09T00:55:12;28.63;;;19.20;;
70761;SDS011;58360;0.000;0.000;2023-04-09T00:57:38;29.13;;;18.45;;
70761;SDS011;58360;0.000;0.000;2023-04-09T01:00:04;29.88;;;20.60;;
70761;SDS011;58360;0.000;0.000;2023-04-09T01:02:31;30.88;;;20.05;;
70761;SDS011;58360;0.000;0.000;2023-04-09T01:04:57;28.83;;;20.35;;
70761;SDS011;58360;0.000;0.000;2023-04-09T01:10:38;27.83;;;19.02;;
70761;SDS011;58360;0.000;0.000;2023-04-09T01:15:53;33.25;;;19.40;;
70761;SDS011;58360;0.000;0.000;2023-04-09T01:18:23;28.60;;;19.23;;
70761;SDS011;58360;0.000;0.000;2023-04-09T01:21:09;29.85;;;20.15;;
70761;SDS011;58360;0.000;0.000;2023-04-09T01:26:17;32.13;;;20.73;;
70761;SDS011;58360;0.000;0.000;2023-04-09T01:29:02;34.30;;;20.90;;
70761;SDS011;58360;0.000;0.000;2023-04-09T01:31:35;32.55;;;20.20;;
70761;SDS011;58360;0.000;0.000;2023-04-09T01:34:02;34.50;;;21.58;;
70761;SDS011;58360;0.000;0.000;2023-04-09T01:36:30;33.55;;;20.55;;
70761;SDS011;58360;0.000;0.000;2023-04-09T01:38:59;33.03;;;21.42;;
70761;SDS011;58360;0.000;0.000;2023-04-09T01:41:25;36.72;;;22.95;;
70761;SDS011;58360;0.000;0.000;2023-04-09T01:43:52;34.08;;;22.02;;
70761;SDS011;58360;0.000;0.000;2023-04-09T01:46:18;37.92;;;22.20;;
70761;SDS011;58360;0.000;0.000;2023-04-09T01:48:46;35.67;;;22.08;;
70761;SDS011;58360;0.000;0.000;2023-04-09T01:51:12;35.78;;;23.92;;
70761;SDS011;58360;0.000;0.000;2023-04-09T01:53:39;35.50;;;22.88;;
70761;SDS011;58360;0.000;0.000;2023-04-09T01:56:05;34.55;;;22.42;;
70761;SDS011;58360;0.000;0.000;2023-04-09T01:58:32;37.22;;;23.95;;
70761;SDS011;58360;0.000;0.000;2023-04-09T02:01:19;33.55;;;22.50;;
70761;SDS011;58360;0.000;0.000;2023-04-09T02:03:51;40.67;;;24.13;;
70761;SDS011;58360;0.000;0.000;2023-04-09T02:09:05;38.70;;;24.23;;
70761;SDS011;58360;0.000;0.000;2023-04-09T02:11:33;37.55;;;25.42;;
70761;SDS011;58360;0.000;0.000;2023-04-09T02:14:02;40.13;;;26.00;;
70761;SDS011;58360;0.000;0.000;2023-04-09T02:16:30;47.35;;;27.30;;
70761;SDS011;58360;0.000;0.000;2023-04-09T02:18:56;42.72;;;27.77;;
70761;SDS011;58360;0.000;0.000;2023-04-09T02:21:25;42.47;;;27.08;;
70761;SDS011;58360;0.000;0.000;2023-04-09T02:23:52;43.00;;;28.13;;
70761;SDS011;58360;0.000;0.000;2023-04-09T02:26:18;46.53;;;28.33;;
70761;SDS011;58360;0.000;0.000;2023-04-09T02:28:44;45.80;;;27.77;;
70761;SDS011;58360;0.000;0.000;2023-04-09T02:31:09;49.28;;;29.63;;
70761;SDS011;58360;0.000;0.000;2023-04-09T02:33:35;47.42;;;28.52;;
70761;SDS011;58360;0.000;0.000;2023-04-09T02:36:01;45.85;;;30.55;;
70761;SDS011;58360;0.000;0.000;2023-04-09T02:38:26;47.80;;;30.33;;
70761;SDS011;58360;0.000;0.000;2023-04-09T02:40:52;45.15;;;29.20;;
70761;SDS011;58360;0.000;0.000;2023-04-09T02:43:17;44.25;;;29.27;;
70761;SDS011;58360;0.000;0.000;2023-04-09T02:45:43;50.83;;;30.33;;
70761;SDS011;58360;0.000;0.000;2023-04-09T02:48:09;49.50;;;30.90;;
70761;SDS011;58360;0.000;0.000;2023-04-09T02:50:35;48.50;;;29.70;;
70761;SDS011;58360;0.000;0.000;2023-04-09T02:53:00;47.22;;;29.95;;
70761;SDS011;58360;0.000;0.000;2023-04-09T02:55:26;47.15;;;29.65;;
70761;SDS011;58360;0.000;0.000;2023-04-09T02:57:51;46.90;;;29.52;;
70761;SDS011;58360;0.000;0.000;2023-04-09T03:00:17;44.78;;;28.23;;
70761;SDS011;58360;0.000;0.000;2023-04-09T03:02:43;46.13;;;28.50;;
70761;SDS011;58360;0.000;0.000;2023-04-09T03:05:09;47.92;;;30.10;;
70761;SDS011;58360;0.000;0.000;2023-04-09T03:07:34;48.50;;;30.48;;
70761;SDS011;58360;0.000;0.000;2023-04-09T03:10:00;50.88;;;31.15;;
70761;SDS011;58360;0.000;0.000;2023-04-09T03:12:25;49.22;;;30.52;;
70761;SDS011;58360;0.000;0.000;2023-04-09T03:14:51;46.30;;;29.42;;
70761;SDS011;58360;0.000;0.000;2023-04-09T03:17:17;47.17;;;29.60;;
70761;SDS011;58360;0.000;0.000;2023-04-09T03:19:42;52.47;;;29.98;;
70761;SDS011;58360;0.000;0.000;2023-04-09T03:22:08;49.63;;;30.00;;
70761;SDS011;58360;0.000;0.000;2023-04-09T03:24:34;45.65;;;29.48;;
70761;SDS011;58360;0.000;0.000;2023-04-09T03:26:59;52.80;;;31.60;;
70761;SDS011;58360;0.000;0.000;2023-04-09T03:29:25;52.22;;;30.67;;
70761;SDS011;58360;0.000;0.000;2023-04-09T03:31:51;49.85;;;31.63;;
70761;SDS011;58360;0.000;0.000;2023-04-09T03:34:16;54.50;;;33.22;;
70761;SDS011;58360;0.000;0.000;2023-04-09T03:36:42;49.75;;;30.15;;
70761;SDS011;58360;0.000;0.000;2023-04-09T03:39:08;51.63;;;31.60;;
70761;SDS011;58360;0.000;0.000;2023-04-09T03:41:33;51.22;;;32.50;;
70761;SDS011;58360;0.000;0.000;2023-04-09T03:43:59;51.83;;;31.20;;
70761;SDS011;58360;0.000;0.000;2023-04-09T03:46:25;51.50;;;31.83;;
70761;SDS011;58360;0.000;0.000;2023-04-09T03:48:50;54.03;;;32.60;;
70761;SDS011;58360;0.000;0.000;2023-04-09T03:51:16;55.40;;;32.42;;
70761;SDS011;58360;0.000;0.000;2023-04-09T03:53:42;55.38;;;34.28;;
70761;SDS011;58360;0.000;0.000;2023-04-09T03:56:08;53.50;;;33.40;;
70761;SDS011;58360;0.000;0.000;2023-04-09T03:58:35;53.88;;;33.58;;
70761;SDS011;58360;0.000;0.000;2023-04-09T04:01:01;52.83;;;32.90;;
70761;SDS011;58360;0.000;0.000;2023-04-09T04:03:27;54.08;;;32.88;;
70761;SDS011;58360;0.000;0.000;2023-04-09T04:05:53;58.80;;;32.85;;
70761;SDS011;58360;0.000;0.000;2023-04-09T04:08:23;55.97;;;34.95;;
70761;SDS011;58360;0.000;0.000;2023-04-09T04:10:49;56.72;;;34.33;;
70761;SDS011;58360;0.000;0.000;2023-04-09T04:13:15;54.92;;;33.78;;
70761;SDS011;58360;0.000;0.000;2023-04-09T04:15:41;54.45;;;32.95;;
70761;SDS011;58360;0.000;0.000;2023-04-09T04:18:09;53.75;;;34.00;;
70761;SDS011;58360;0.000;0.000;2023-04-09T04:20:36;57.47;;;34.85;;
70761;SDS011;58360;0.000;0.000;2023-04-09T04:23:02;56.92;;;35.72;;
70761;SDS011;58360;0.000;0.000;2023-04-09T04:25:28;56.67;;;34.03;;
70761;SDS011;58360;0.000;0.000;2023-04-09T04:27:55;53.67;;;34.70;;
70761;SDS011;58360;0.000;0.000;2023-04-09T04:30:21;55.80;;;34.65;;
70761;SDS011;58360;0.000;0.000;2023-04-09T04:32:47;53.30;;;33.90;;
70761;SDS011;58360;0.000;0.000;2023-04-09T04:35:12;57.13;;;35.80;;
70761;SDS011;58360;0.000;0.000;2023-04-09T04:37:38;63.33;;;36.80;;
70761;SDS011;58360;0.000;0.000;2023-04-09T04:40:05;56.95;;;34.70;;
70761;SDS011;58360;0.000;0.000;2023-04-09T04:42:32;58.42;;;35.03;;
70761;SDS011;58360;0.000;0.000;2023-04-09T04:44:58;57.17;;;35.25;;
70761;SDS011;58360;0.000;0.000;2023-04-09T04:47:23;65.75;;;37.67;;
70761;SDS011;58360;0.000;0.000;2023-04-09T04:49:49;59.67;;;36.80;;
70761;SDS011;58360;0.000;0.000;2023-04-09T04:52:15;67.85;;;38.03;;
70761;SDS011;58360;0.000;0.000;2023-04-09T04:54:40;63.30;;;37.75;;
70761;SDS011;58360;0.000;0.000;2023-04-09T04:57:06;65.00;;;36.92;;
70761;SDS011;58360;0.000;0.000;2023-04-09T04:59:32;66.07;;;37.53;;
70761;SDS011;58360;0.000;0.000;2023-04-09T05:01:57;63.22;;;36.67;;
70761;SDS011;58360;0.000;0.000;2023-04-09T05:04:23;64.57;;;38.58;;
70761;SDS011;58360;0.000;0.000;2023-04-09T05:06:49;66.80;;;38.03;;
70761;SDS011;58360;0.000;0.000;2023-04-09T05:09:15;66.68;;;37.78;;
70761;SDS011;58360;0.000;0.000;2023-04-09T05:11:41;66.55;;;36.85;;
70761;SDS011;58360;0.000;0.000;2023-04-09T05:14:06;60.80;;;36.35;;
70761;SDS011;58360;0.000;0.000;2023-04-09T05:16:32;60.03;;;34.92;;
70761;SDS011;58360;0.000;0.000;2023-04-09T05:18:57;63.55;;;36.22;;
70761;SDS011;58360;0.000;0.000;2023-04-09T05:21:23;57.75;;;34.97;;
70761;SDS011;58360;0.000;0.000;2023-04-09T05:23:49;60.47;;;36.40;;
70761;SDS011;58360;0.000;0.000;2023-04-09T05:26:15;62.72;;;36.33;;
70761;SDS011;58360;0.000;0.000;2023-04-09T05:28:40;67.32;;;38.35;;
70761;SDS011;58360;0.000;0.000;2023-04-09T05:31:06;67.68;;;39.70;;
70761;SDS011;58360;0.000;0.000;2023-04-09T05:33:36;62.63;;;37.35;;
70761;SDS011;58360;0.000;0.000;2023-04-09T05:36:03;67.30;;;39.63;;
70761;SDS011;58360;0.000;0.000;2023-04-09T05:38:29;67.63;;;39.40;;
70761;SDS011;58360;0.000;0.000;2023-04-09T05:40:54;63.30;;;37.00;;
70761;SDS011;58360;0.000;0.000;2023-04-09T05:43:20;67.90;;;37.50;;
70761;SDS011;58360;0.000;0.000;2023-04-09T05:45:46;61.92;;;36.85;;
70761;SDS011;58360;0.000;0.000;2023-04-09T05:48:12;65.88;;;38.55;;
70761;SDS011;58360;0.000;0.000;2023-04-09T05:50:38;64.15;;;37.00;;
70761;SDS011;58360;0.000;0.000;2023-04-09T05:53:03;63.95;;;36.67;;
70761;SDS011;58360;0.000;0.000;2023-04-09T05:55:32;68.30;;;38.58;;
70761;SDS011;58360;0.000;0.000;2023-04-09T05:57:58;63.90;;;37.47;;
70761;SDS011;58360;0.000;0.000;2023-04-09T06:00:24;64.57;;;37.47;;
70761;SDS011;58360;0.000;0.000;2023-04-09T06:02:50;65.38;;;38.00;;
70761;SDS011;58360;0.000;0.000;2023-04-09T06:05:16;58.70;;;35.75;;
70761;SDS011;58360;0.000;0.000;2023-04-09T06:07:41;64.65;;;37.88;;
70761;SDS011;58360;0.000;0.000;2023-04-09T06:10:07;64.80;;;37.85;;
70761;SDS011;58360;0.000;0.000;2023-04-09T06:12:36;57.70;;;35.50;;
70761;SDS011;58360;0.000;0.000;2023-04-09T06:15:03;63.65;;;36.53;;
70761;SDS011;58360;0.000;0.000;2023-04-09T06:17:29;61.97;;;36.17;;
70761;SDS011;58360;0.000;0.000;2023-04-09T06:19:55;57.22;;;34.50;;
70761;SDS011;58360;0.000;0.000;2023-04-09T06:22:20;55.10;;;33.30;;
70761;SDS011;58360;0.000;0.000;2023-04-09T06:24:46;55.15;;;34.45;;
70761;SDS011;58360;0.000;0.000;2023-04-09T06:27:12;57.15;;;33.90;;
70761;SDS011;58360;0.000;0.000;2023-04-09T06:29:37;55.58;;;34.80;;
70761;SDS011;58360;0.000;0.000;2023-04-09T06:32:04;58.15;;;34.83;;
70761;SDS011;58360;0.000;0.000;2023-04-09T06:34:30;57.75;;;33.70;;
70761;SDS011;58360;0.000;0.000;2023-04-09T06:36:55;53.90;;;33.90;;
70761;SDS011;58360;0.000;0.000;2023-04-09T06:39:21;50.97;;;32.80;;
70761;SDS011;58360;0.000;0.000;2023-04-09T06:41:47;52.80;;;33.03;;
70761;SDS011;58360;0.000;0.000;2023-04-09T06:44:12;53.17;;;33.90;;
70761;SDS011;58360;0.000;0.000;2023-04-09T06:46:38;50.05;;;33.28;;
70761;SDS011;58360;0.000;0.000;2023-04-09T06:49:04;50.78;;;33.22;;
70761;SDS011;58360;0.000;0.000;2023-04-09T06:51:30;52.42;;;33.40;;
70761;SDS011;58360;0.000;0.000;2023-04-09T06:53:55;50.25;;;32.75;;
70761;SDS011;58360;0.000;0.000;2023-04-09T06:56:21;48.88;;;32.25;;
70761;SDS011;58360;0.000;0.000;2023-04-09T06:58:47;50.83;;;32.95;;
70761;SDS011;58360;0.000;0.000;2023-04-09T07:01:13;51.35;;;33.30;;
70761;SDS011;58360;0.000;0.000;2023-04-09T07:03:38;51.58;;;32.65;;
70761;SDS011;58360;0.000;0.000;2023-04-09T07:06:04;51.13;;;33.50;;
70761;SDS011;58360;0.000;0.000;2023-04-09T07:08:30;52.00;;;32.88;;
70761;SDS011;58360;0.000;0.000;2023-04-09T07:10:56;51.55;;;32.97;;
70761;SDS011;58360;0.000;0.000;2023-04-09T07:13:21;48.42;;;31.80;;
70761;SDS011;58360;0.000;0.000;2023-04-09T07:15:47;48.88;;;31.90;;
70761;SDS011;58360;0.000;0.000;2023-04-09T07:18:13;54.15;;;32.38;;
70761;SDS011;58360;0.000;0.000;2023-04-09T07:20:38;50.03;;;32.92;;
70761;SDS011;58360;0.000;0.000;2023-04-09T07:23:04;51.05;;;32.55;;
70761;SDS011;58360;0.000;0.000;2023-04-09T07:25:30;48.05;;;31.80;;
70761;SDS011;58360;0.000;0.000;2023-04-09T07:27:56;47.58;;;31.27;;
70761;SDS011;58360;0.000;0.000;2023-04-09T07:30:22;49.08;;;32.83;;
70761;SDS011;58360;0.000;0.000;2023-04-09T07:32:48;48.75;;;32.30;;
70761;SDS011;58360;0.000;0.000;2023-04-09T07:35:13;45.95;;;31.70;;
70761;SDS011;58360;0.000;0.000;2023-04-09T07:37:39;46.95;;;31.23;;
70761;SDS011;58360;0.000;0.000;2023-04-09T07:40:05;47.65;;;31.38;;
70761;SDS011;58360;0.000;0.000;2023-04-09T07:42:32;44.33;;;31.40;;
70761;SDS011;58360;0.000;0.000;2023-04-09T07:44:57;44.83;;;30.05;;
70761;SDS011;58360;0.000;0.000;2023-04-09T07:47:23;42.78;;;28.98;;
70761;SDS011;58360;0.000;0.000;2023-04-09T07:49:49;42.53;;;29.90;;
70761;SDS011;58360;0.000;0.000;2023-04-09T07:52:15;46.35;;;31.10;;
70761;SDS011;58360;0.000;0.000;2023-04-09T07:54:40;44.10;;;29.95;;
70761;SDS011;58360;0.000;0.000;2023-04-09T07:57:06;41.08;;;29.02;;
70761;SDS011;58360;0.000;0.000;2023-04-09T07:59:33;42.47;;;29.52;;
70761;SDS011;58360;0.000;0.000;2023-04-09T08:01:59;43.03;;;29.98;;
70761;SDS011;58360;0.000;0.000;2023-04-09T08:04:24;43.00;;;28.95;;
70761;SDS011;58360;0.000;0.000;2023-04-09T08:06:51;42.05;;;29.88;;
70761;SDS011;58360;0.000;0.000;2023-04-09T08:09:17;40.60;;;29.00;;
70761;SDS011;58360;0.000;0.000;2023-04-09T08:11:47;41.08;;;30.02;;
70761;SDS011;58360;0.000;0.000;2023-04-09T08:14:13;43.17;;;29.17;;
70761;SDS011;58360;0.000;0.000;2023-04-09T08:16:41;43.40;;;29.50;;
70761;SDS011;58360;0.000;0.000;2023-04-09T08:19:07;42.90;;;29.42;;
70761;SDS011;58360;0.000;0.000;2023-04-09T08:21:35;43.65;;;29.77;;
70761;SDS011;58360;0.000;0.000;2023-04-09T08:24:02;41.28;;;28.65;;
70761;SDS011;58360;0.000;0.000;2023-04-09T08:26:30;39.08;;;27.95;;
70761;SDS011;58360;0.000;0.000;2023-04-09T08:28:56;38.30;;;28.15;;
70761;SDS011;58360;0.000;0.000;2023-04-09T08:31:22;38.92;;;27.02;;
70761;SDS011;58360;0.000;0.000;2023-04-09T08:33:47;39.10;;;28.90;;
70761;SDS011;58360;0.000;0.000;2023-04-09T08:36:13;38.60;;;28.45;;
70761;SDS011;58360;0.000;0.000;2023-04-09T08:38:40;41.13;;;28.25;;
70761;SDS011;58360;0.000;0.000;2023-04-09T08:41:06;38.40;;;28.98;;
70761;SDS011;58360;0.000;0.000;2023-04-09T08:43:31;38.30;;;27.95;;
70761;SDS011;58360;0.000;0.000;2023-04-09T08:46:00;37.95;;;27.77;;
70761;SDS011;58360;0.000;0.000;2023-04-09T08:48:27;37.72;;;28.10;;
70761;SDS011;58360;0.000;0.000;2023-04-09T08:50:53;35.67;;;26.85;;
70761;SDS011;58360;0.000;0.000;2023-04-09T08:53:19;36.85;;;27.63;;
70761;SDS011;58360;0.000;0.000;2023-04-09T08:55:46;34.15;;;25.95;;
70761;SDS011;58360;0.000;0.000;2023-04-09T08:58:12;42.65;;;26.42;;
70761;SDS011;58360;0.000;0.000;2023-04-09T09:00:38;37.13;;;26.65;;
70761;SDS011;58360;0.000;0.000;2023-04-09T09:03:08;35.05;;;25.38;;
70761;SDS011;58360;0.000;0.000;2023-04-09T09:05:39;36.05;;;26.48;;
70761;SDS011;58360;0.000;0.000;2023-04-09T09:08:10;36.45;;;26.13;;
70761;SDS011;58360;0.000;0.000;2023-04-09T09:10:46;34.30;;;25.92;;
70761;SDS011;58360;0.000;0.000;2023-04-09T09:13:16;34.17;;;26.17;;
70761;SDS011;58360;0.000;0.000;2023-04-09T09:15:49;34.35;;;24.65;;
70761;SDS011;58360;0.000;0.000;2023-04-09T09:18:19;34.28;;;23.50;;
70761;SDS011;58360;0.000;0.000;2023-04-09T09:20:45;37.80;;;25.48;;
70761;SDS011;58360;0.000;0.000;2023-04-09T09:23:11;34.85;;;25.52;;
70761;SDS011;58360;0.000;0.000;2023-04-09T09:25:37;33.90;;;24.60;;
70761;SDS011;58360;0.000;0.000;2023-04-09T09:28:07;35.33;;;24.17;;
70761;SDS011;58360;0.000;0.000;2023-04-09T09:30:35;35.58;;;25.15;;
70761;SDS011;58360;0.000;0.000;2023-04-09T09:33:06;33.60;;;23.75;;
70761;SDS011;58360;0.000;0.000;2023-04-09T09:35:51;33.53;;;23.63;;
70761;SDS011;58360;0.000;0.000;2023-04-09T09:38:18;28.63;;;21.55;;
70761;SDS011;58360;0.000;0.000;2023-04-09T09:40:45;34.45;;;24.25;;
70761;SDS011;58360;0.000;0.000;2023-04-09T09:43:11;27.65;;;21.50;;
70761;SDS011;58360;0.000;0.000;2023-04-09T09:45:38;30.05;;;23.40;;
70761;SDS011;58360;0.000;0.000;2023-04-09T09:48:05;26.80;;;20.23;;
70761;SDS011;58360;0.000;0.000;2023-04-09T09:50:31;31.50;;;22.75;;
70761;SDS011;58360;0.000;0.000;2023-04-09T09:53:03;28.17;;;21.45;;
70761;SDS011;58360;0.000;0.000;2023-04-09T09:55:33;28.83;;;20.48;;
70761;SDS011;58360;0.000;0.000;2023-04-09T09:58:04;30.80;;;22.23;;
70761;SDS011;58360;0.000;0.000;2023-04-09T10:00:36;28.90;;;21.10;;
70761;SDS011;58360;0.000;0.000;2023-04-09T10:03:06;32.25;;;22.13;;
70761;SDS011;58360;0.000;0.000;2023-04-09T10:05:40;28.42;;;21.55;;
70761;SDS011;58360;0.000;0.000;2023-04-09T10:08:06;27.88;;;20.83;;
70761;SDS011;58360;0.000;0.000;2023-04-09T10:10:32;28.27;;;20.33;;
70761;SDS011;58360;0.000;0.000;2023-04-09T10:12:58;30.35;;;22.83;;
70761;SDS011;58360;0.000;0.000;2023-04-09T10:15:25;28.35;;;20.67;;
70761;SDS011;58360;0.000;0.000;2023-04-09T10:17:52;29.20;;;21.30;;
70761;SDS011;58360;0.000;0.000;2023-04-09T10:20:22;26.60;;;21.10;;
70761;SDS011;58360;0.000;0.000;2023-04-09T10:22:52;36.00;;;22.70;;
70761;SDS011;58360;0.000;0.000;2023-04-09T10:25:19;30.27;;;20.10;;
70761;SDS011;58360;0.000;0.000;2023-04-09T10:27:45;27.08;;;20.13;;
70761;SDS011;58360;0.000;0.000;2023-04-09T10:30:30;31.17;;;21.08;;
70761;SDS011;58360;0.000;0.000;2023-04-09T10:35:50;24.73;;;19.07;;
70761;SDS011;58360;0.000;0.000;2023-04-09T10:38:16;29.02;;;20.25;;
70761;SDS011;58360;0.000;0.000;2023-04-09T10:40:46;27.58;;;19.77;;
70761;SDS011;58360;0.000;0.000;2023-04-09T10:43:13;27.08;;;20.27;;
70761;SDS011;58360;0.000;0.000;2023-04-09T10:45:43;25.80;;;18.60;;
70761;SDS011;58360;0.000;0.000;2023-04-09T10:48:12;23.98;;;18.20;;
70761;SDS011;58360;0.000;0.000;2023-04-09T10:50:38;27.88;;;19.35;;
70761;SDS011;58360;0.000;0.000;2023-04-09T10:53:19;26.95;;;18.73;;
70761;SDS011;58360;0.000;0.000;2023-04-09T10:55:47;29.52;;;20.77;;
70761;SDS011;58360;0.000;0.000;2023-04-09T10:58:15;28.48;;;20.05;;
70761;SDS011;58360;0.000;0.000;2023-04-09T11:00:42;24.60;;;18.83;;
70761;SDS011;58360;0.000;0.000;2023-04-09T11:03:18;29.33;;;19.00;;
70761;SDS011;58360;0.000;0.000;2023-04-09T11:05:46;25.95;;;19.15;;
70761;SDS011;58360;0.000;0.000;2023-04-09T11:08:27;26.23;;;19.13;;
70761;SDS011;58360;0.000;0.000;2023-04-09T11:10:54;27.80;;;18.67;;
70761;SDS011;58360;0.000;0.000;2023-04-09T11:13:22;23.70;;;17.42;;
70761;SDS011;58360;0.000;0.000;2023-04-09T11:15:48;25.85;;;18.40;;
70761;SDS011;58360;0.000;0.000;2023-04-09T11:18:18;24.38;;;17.77;;
70761;SDS011;58360;0.000;0.000;2023-04-09T11:20:45;23.52;;;17.58;;
70761;SDS011;58360;0.000;0.000;2023-04-09T11:23:11;28.70;;;19.65;;
70761;SDS011;58360;0.000;0.000;2023-04-09T11:25:37;25.23;;;18.10;;
70761;SDS011;58360;0.000;0.000;2023-04-09T11:28:03;22.77;;;16.63;;
70761;SDS011;58360;0.000;0.000;2023-04-09T11:30:30;23.02;;;15.80;;
70761;SDS011;58360;0.000;0.000;2023-04-09T11:32:55;21.02;;;16.40;;
70761;SDS011;58360;0.000;0.000;2023-04-09T11:35:21;22.42;;;15.85;;
70761;SDS011;58360;0.000;0.000;2023-04-09T11:37:48;22.70;;;14.98;;
70761;SDS011;58360;0.000;0.000;2023-04-09T11:40:23;21.83;;;15.25;;
70761;SDS011;58360;0.000;0.000;2023-04-09T11:42:51;20.45;;;14.25;;
70761;SDS011;58360;0.000;0.000;2023-04-09T11:45:18;18.67;;;13.98;;
70761;SDS011;58360;0.000;0.000;2023-04-09T11:47:49;20.35;;;15.73;;
70761;SDS011;58360;0.000;0.000;2023-04-09T11:50:15;20.77;;;15.00;;
70761;SDS011;58360;0.000;0.000;2023-04-09T11:52:42;21.17;;;14.13;;
70761;SDS011;58360;0.000;0.000;2023-04-09T11:55:09;19.63;;;14.68;;
70761;SDS011;58360;0.000;0.000;2023-04-09T11:57:42;21.17;;;15.32;;
70761;SDS011;58360;0.000;0.000;2023-04-09T12:02:40;23.08;;;15.52;;
70761;SDS011;58360;0.000;0.000;2023-04-09T12:05:20;21.17;;;14.82;;
70761;SDS011;58360;0.000;0.000;2023-04-09T12:07:56;17.85;;;13.57;;
70761;SDS011;58360;0.000;0.000;2023-04-09T12:10:26;17.80;;;12.68;;
70761;SDS011;58360;0.000;0.000;2023-04-09T12:12:53;18.85;;;14.30;;
70761;SDS011;58360;0.000;0.000;2023-04-09T12:15:23;17.48;;;13.20;;
70761;SDS011;58360;0.000;0.000;2023-04-09T12:17:53;21.83;;;14.52;;
70761;SDS011;58360;0.000;0.000;2023-04-09T12:22:55;18.38;;;13.15;;
70761;SDS011;58360;0.000;0.000;2023-04-09T12:25:22;21.98;;;13.40;;
70761;SDS011;58360;0.000;0.000;2023-04-09T12:27:48;15.88;;;11.50;;
70761;SDS011;58360;0.000;0.000;2023-04-09T12:30:13;17.33;;;11.93;;
70761;SDS011;58360;0.000;0.000;2023-04-09T12:32:39;17.85;;;12.38;;
70761;SDS011;58360;0.000;0.000;2023-04-09T12:35:06;20.42;;;14.40;;
70761;SDS011;58360;0.000;0.000;2023-04-09T12:37:32;16.30;;;11.18;;
70761;SDS011;58360;0.000;0.000;2023-04-09T12:39:58;20.48;;;15.15;;
70761;SDS011;58360;0.000;0.000;2023-04-09T12:42:24;17.92;;;12.98;;
70761;SDS011;58360;0.000;0.000;2023-04-09T12:44:49;19.73;;;13.05;;
70761;SDS011;58360;0.000;0.000;2023-04-09T12:47:15;18.90;;;13.15;;
70761;SDS011;58360;0.000;0.000;2023-04-09T12:49:42;18.38;;;12.65;;
70761;SDS011;58360;0.000;0.000;2023-04-09T12:52:10;18.63;;;13.00;;
70761;SDS011;58360;0.000;0.000;2023-04-09T12:54:36;18.80;;;12.60;;
70761;SDS011;58360;0.000;0.000;2023-04-09T12:57:04;17.98;;;13.02;;
70761;SDS011;58360;0.000;0.000;2023-04-09T12:59:29;19.30;;;13.57;;
70761;SDS011;58360;0.000;0.000;2023-04-09T13:01:55;22.33;;;15.02;;
70761;SDS011;58360;0.000;0.000;2023-04-09T13:04:21;21.48;;;15.02;;
70761;SDS011;58360;0.000;0.000;2023-04-09T13:06:46;25.38;;;18.45;;
70761;SDS011;58360;0.000;0.000;2023-04-09T13:09:12;21.95;;;14.93;;
70761;SDS011;58360;0.000;0.000;2023-04-09T13:11:38;19.50;;;13.75;;
70761;SDS011;58360;0.000;0.000;2023-04-09T13:14:04;21.23;;;15.30;;
70761;SDS011;58360;0.000;0.000;2023-04-09T13:16:30;19.67;;;13.77;;
70761;SDS011;58360;0.000;0.000;2023-04-09T13:18:56;20.95;;;12.63;;
70761;SDS011;58360;0.000;0.000;2023-04-09T13:21:23;17.52;;;12.32;;
70761;SDS011;58360;0.000;0.000;2023-04-09T13:23:48;16.52;;;11.13;;
70761;SDS011;58360;0.000;0.000;2023-04-09T13:26:14;16.08;;;10.52;;
70761;SDS011;58360;0.000;0.000;2023-04-09T13:28:40;16.88;;;11.23;;
70761;SDS011;58360;0.000;0.000;2023-04-09T13:31:06;19.65;;;12.63;;
70761;SDS011;58360;0.000;0.000;2023-04-09T13:33:31;19.35;;;12.52;;
70761;SDS011;58360;0.000;0.000;2023-04-09T13:35:57;18.42;;;13.25;;
70761;SDS011;58360;0.000;0.000;2023-04-09T13:38:23;16.95;;;11.85;;
70761;SDS011;58360;0.000;0.000;2023-04-09T13:40:48;18.27;;;12.73;;
70761;SDS011;58360;0.000;0.000;2023-04-09T13:43:14;17.23;;;11.95;;
70761;SDS011;58360;0.000;0.000;2023-04-09T13:45:40;18.60;;;12.25;;
70761;SDS011;58360;0.000;0.000;2023-04-09T13:48:05;16.13;;;11.48;;
70761;SDS011;58360;0.000;0.000;2023-04-09T13:50:31;19.45;;;10.80;;
70761;SDS011;58360;0.000;0.000;2023-04-09T13:52:57;16.05;;;9.63;;
70761;SDS011;58360;0.000;0.000;2023-04-09T13:55:23;17.17;;;10.50;;
70761;SDS011;58360;0.000;0.000;2023-04-09T13:57:49;26.92;;;10.27;;
70761;SDS011;58360;0.000;0.000;2023-04-09T14:00:14;14.18;;;9.52;;
70761;SDS011;58360;0.000;0.000;2023-04-09T14:02:40;15.80;;;10.65;;
70761;SDS011;58360;0.000;0.000;2023-04-09T14:05:06;16.98;;;11.52;;
70761;SDS011;58360;0.000;0.000;2023-04-09T14:07:31;15.30;;;10.77;;
70761;SDS011;58360;0.000;0.000;2023-04-09T14:09:57;18.63;;;11.63;;
70761;SDS011;58360;0.000;0.000;2023-04-09T14:12:23;15.73;;;11.40;;
70761;SDS011;58360;0.000;0.000;2023-04-09T14:14:48;16.77;;;11.20;;
70761;SDS011;58360;0.000;0.000;2023-04-09T14:17:14;15.77;;;10.88;;
70761;SDS011;58360;0.000;0.000;2023-04-09T14:19:40;17.17;;;10.30;;
70761;SDS011;58360;0.000;0.000;2023-04-09T14:22:05;16.60;;;11.15;;
70761;SDS011;58360;0.000;0.000;2023-04-09T14:24:32;15.40;;;10.68;;
70761;SDS011;58360;0.000;0.000;2023-04-09T14:27:04;15.32;;;10.68;;
70761;SDS011;58360;0.000;0.000;2023-04-09T14:29:30;15.07;;;10.60;;
70761;SDS011;58360;0.000;0.000;2023-04-09T14:31:56;16.52;;;10.68;;
70761;SDS011;58360;0.000;0.000;2023-04-09T14:34:22;15.05;;;10.35;;
70761;SDS011;58360;0.000;0.000;2023-04-09T14:36:47;13.95;;;9.38;;
70761;SDS011;58360;0.000;0.000;2023-04-09T14:39:13;17.55;;;11.02;;
70761;SDS011;58360;0.000;0.000;2023-04-09T14:41:39;20.02;;;10.32;;
70761;SDS011;58360;0.000;0.000;2023-04-09T14:44:05;14.52;;;10.25;;
70761;SDS011;58360;0.000;0.000;2023-04-09T14:46:31;17.20;;;9.75;;
70761;SDS011;58360;0.000;0.000;2023-04-09T14:48:56;15.68;;;10.13;;
70761;SDS011;58360;0.000;0.000;2023-04-09T14:51:22;13.70;;;9.45;;
70761;SDS011;58360;0.000;0.000;2023-04-09T14:53:48;14.60;;;10.20;;